Time;durP1;ratioP1;P1;durP2;ratioP2;P2;SDS_P1;SDS_P2;PMS_P1;PMS_P2;Temp;Humidity;BMP_temperature;BMP_pressure;BME280_temperature;BME280_humidity;BME280_pressure;Samples;Min_cycle;Max_cycle;Signal;HPM_P1;HPM_P2
2022/02/13 00:00:53;;;;;;;7.57;5.63;;;;;;;;;;5039855;28;20410;-81
2022/02/13 00:03:19;;;;;;;5.57;3.90;;;;;;;;;;5055091;28;20489;-79
2022/02/13 00:05:45;;;;;;;6.50;4.40;;;;;;;;;;5040886;28;20415;-81
2022/02/13 00:08:12;;;;;;;8.97;4.23;;;;;;;;;;5040805;28;20437;-81
2022/02/13 00:10:38;;;;;;;8.60;3.70;;;;;;;;;;5039668;28;20418;-80
2022/02/13 00:13:04;;;;;;;10.50;4.37;;;;;;;;;;5055101;28;20410;-80
2022/02/13 00:15:30;;;;;;;4.50;3.40;;;;;;;;;;5054853;28;20406;-81
2022/02/13 00:17:57;;;;;;;6.20;3.30;;;;;;;;;;5055290;28;20410;-80
2022/02/13 00:20:23;;;;;;;4.53;3.50;;;;;;;;;;5038736;28;20518;-80
2022/02/13 00:22:49;;;;;;;4.63;3.50;;;;;;;;;;5039250;28;20454;-80
2022/02/13 00:25:15;;;;;;;6.03;3.37;;;;;;;;;;5039466;28;20410;-80
2022/02/13 00:27:45;;;;;;;7.97;3.70;;;;;;;;;;5054927;28;20403;-80
2022/02/13 00:30:13;;;;;;;5.53;3.77;;;;;;;;;;5039935;28;20433;-80
2022/02/13 00:32:39;;;;;;;5.13;3.37;;;;;;;;;;5055084;28;20437;-80
2022/02/13 00:35:06;;;;;;;6.00;3.50;;;;;;;;;;5041364;28;20417;-80
2022/02/13 00:37:32;;;;;;;5.60;3.23;;;;;;;;;;5073575;28;20411;-80
2022/02/13 00:39:58;;;;;;;4.70;2.83;;;;;;;;;;5042290;28;20941;-79
2022/02/13 00:42:24;;;;;;;3.40;2.80;;;;;;;;;;5040181;28;20458;-80
2022/02/13 00:44:50;;;;;;;6.30;3.10;;;;;;;;;;5055831;28;20431;-80
2022/02/13 00:47:16;;;;;;;4.50;2.60;;;;;;;;;;5055961;28;20434;-80
2022/02/13 00:49:42;;;;;;;5.27;3.80;;;;;;;;;;5040746;28;20430;-81
2022/02/13 00:52:08;;;;;;;4.33;2.73;;;;;;;;;;5040587;28;20426;-80
2022/02/13 00:54:34;;;;;;;6.87;3.33;;;;;;;;;;5040244;28;20398;-80
2022/02/13 00:57:01;;;;;;;4.87;2.43;;;;;;;;;;5039844;28;20522;-80
2022/02/13 00:59:28;;;;;;;5.17;2.73;;;;;;;;;;5054974;28;20969;-80
2022/02/13 01:01:54;;;;;;;4.30;3.03;;;;;;;;;;5039781;28;20489;-81
2022/02/13 01:04:20;;;;;;;4.20;2.73;;;;;;;;;;5040261;28;20410;-80
2022/02/13 01:06:46;;;;;;;5.93;3.07;;;;;;;;;;5039721;28;20437;-79
2022/02/13 01:09:12;;;;;;;7.20;2.70;;;;;;;;;;5055223;28;20470;-80
2022/02/13 01:11:38;;;;;;;5.10;2.53;;;;;;;;;;5039513;28;20579;-81
2022/02/13 01:14:05;;;;;;;2.40;1.60;;;;;;;;;;5039287;28;20413;-81
2022/02/13 01:16:31;;;;;;;3.03;1.70;;;;;;;;;;5039944;28;20754;-80
2022/02/13 01:18:57;;;;;;;2.47;1.80;;;;;;;;;;5055368;28;20898;-80
2022/02/13 01:21:23;;;;;;;2.80;1.97;;;;;;;;;;5040054;28;20470;-80
2022/02/13 01:23:49;;;;;;;5.43;2.20;;;;;;;;;;5039612;28;20470;-80
2022/02/13 01:26:15;;;;;;;4.83;2.40;;;;;;;;;;5055296;28;20442;-80
2022/02/13 01:28:41;;;;;;;5.33;2.00;;;;;;;;;;5039525;28;20786;-80
2022/02/13 01:31:08;;;;;;;2.70;1.77;;;;;;;;;;5039550;28;20386;-81
2022/02/13 01:33:34;;;;;;;2.60;1.87;;;;;;;;;;5046934;28;20415;-81
2022/02/13 01:36:01;;;;;;;8.90;2.20;;;;;;;;;;5056010;28;20387;-80
2022/02/13 01:38:27;;;;;;;2.00;1.40;;;;;;;;;;5040539;28;20773;-80
2022/02/13 01:40:54;;;;;;;3.43;1.93;;;;;;;;;;5038763;28;20442;-81
2022/02/13 01:43:20;;;;;;;2.20;1.63;;;;;;;;;;5053494;28;20568;-81
2022/02/13 01:45:46;;;;;;;2.57;2.13;;;;;;;;;;5038350;28;20493;-80
2022/02/13 01:48:13;;;;;;;2.43;1.77;;;;;;;;;;5038043;28;20403;-80
2022/02/13 01:50:39;;;;;;;4.70;1.83;;;;;;;;;;5053426;28;20942;-81
2022/02/13 01:53:07;;;;;;;2.33;1.80;;;;;;;;;;5038041;28;20418;-80
2022/02/13 01:55:34;;;;;;;4.20;1.90;;;;;;;;;;5053329;28;20934;-81
2022/02/13 01:58:00;;;;;;;3.07;1.80;;;;;;;;;;5038024;28;20818;-80
2022/02/13 02:00:26;;;;;;;2.30;1.70;;;;;;;;;;5037477;28;20509;-81
2022/02/13 02:02:52;;;;;;;3.07;1.60;;;;;;;;;;5053296;28;20465;-80
2022/02/13 02:05:19;;;;;;;2.10;1.47;;;;;;;;;;5053718;28;20786;-81
2022/02/13 02:07:45;;;;;;;3.27;1.90;;;;;;;;;;5038146;28;20432;-80
2022/02/13 02:10:11;;;;;;;4.30;2.50;;;;;;;;;;5037549;28;20426;-81
2022/02/13 02:12:38;;;;;;;3.30;1.87;;;;;;;;;;5037879;28;20402;-81
2022/02/13 02:15:06;;;;;;;3.93;1.80;;;;;;;;;;5031007;28;20940;-80
2022/02/13 02:17:32;;;;;;;1.80;1.40;;;;;;;;;;5017611;28;20426;-81
2022/02/13 02:19:58;;;;;;;2.10;1.70;;;;;;;;;;5032782;28;20435;-80
2022/02/13 02:22:24;;;;;;;2.30;1.60;;;;;;;;;;5017748;28;20474;-80
2022/02/13 02:24:50;;;;;;;3.67;1.80;;;;;;;;;;5032751;28;20443;-81
2022/02/13 02:27:16;;;;;;;2.80;1.73;;;;;;;;;;5032187;28;20754;-80
2022/02/13 02:29:42;;;;;;;2.03;1.60;;;;;;;;;;5032534;28;20427;-81
2022/02/13 02:32:12;;;;;;;2.63;1.60;;;;;;;;;;5017223;28;20412;-80
2022/02/13 02:34:41;;;;;;;3.70;2.00;;;;;;;;;;5017624;28;20494;-80
2022/02/13 02:37:10;;;;;;;2.47;1.77;;;;;;;;;;5032344;28;20430;-81
2022/02/13 02:39:37;;;;;;;3.03;1.90;;;;;;;;;;5016817;28;20463;-80
2022/02/13 02:42:04;;;;;;;6.57;2.00;;;;;;;;;;5017045;28;20451;-80
2022/02/13 02:44:31;;;;;;;2.57;1.53;;;;;;;;;;5016925;28;20403;-80
2022/02/13 02:46:57;;;;;;;2.73;1.87;;;;;;;;;;5031142;28;20403;-80
2022/02/13 02:49:24;;;;;;;2.57;1.97;;;;;;;;;;5032295;28;20436;-80
2022/02/13 02:51:50;;;;;;;3.37;1.60;;;;;;;;;;5032340;28;20432;-81
2022/02/13 02:54:16;;;;;;;2.20;1.70;;;;;;;;;;5015917;28;20407;-79
2022/02/13 02:56:42;;;;;;;2.73;1.70;;;;;;;;;;5018170;28;20475;-79
2022/02/13 02:59:08;;;;;;;2.13;1.53;;;;;;;;;;5016091;28;21042;-80
2022/02/13 03:01:34;;;;;;;1.93;1.30;;;;;;;;;;5016566;28;20492;-80
2022/02/13 03:04:00;;;;;;;3.53;1.80;;;;;;;;;;5016716;28;20418;-80
2022/02/13 03:06:26;;;;;;;2.10;1.43;;;;;;;;;;5016906;28;20418;-80
2022/02/13 03:08:52;;;;;;;2.77;1.77;;;;;;;;;;5033100;28;20465;-81
2022/02/13 03:11:18;;;;;;;2.63;1.63;;;;;;;;;;5032496;28;20412;-81
2022/02/13 03:13:45;;;;;;;3.50;1.70;;;;;;;;;;5031781;28;20415;-80
2022/02/13 03:16:11;;;;;;;2.47;1.67;;;;;;;;;;5016574;28;20470;-81
2022/02/13 03:18:37;;;;;;;2.00;1.50;;;;;;;;;;5032574;28;20828;-80
2022/02/13 03:21:04;;;;;;;2.83;1.40;;;;;;;;;;5017264;28;20411;-81
2022/02/13 03:23:30;;;;;;;3.90;1.60;;;;;;;;;;5016786;28;20459;-80
2022/02/13 03:25:56;;;;;;;1.60;1.33;;;;;;;;;;5017040;28;20414;-80
2022/02/13 03:28:22;;;;;;;3.23;1.73;;;;;;;;;;5017252;28;20403;-80
2022/02/13 03:30:49;;;;;;;2.13;1.40;;;;;;;;;;5016872;28;20420;-79
2022/02/13 03:33:15;;;;;;;1.97;1.50;;;;;;;;;;5017915;28;20418;-80
2022/02/13 03:35:42;;;;;;;4.03;2.07;;;;;;;;;;5018135;28;20490;-80
2022/02/13 03:38:08;;;;;;;2.47;1.67;;;;;;;;;;5017233;28;20408;-80
2022/02/13 03:40:34;;;;;;;2.97;1.77;;;;;;;;;;5015860;28;20519;-80
2022/02/13 03:43:03;;;;;;;2.30;1.90;;;;;;;;;;5016953;28;20455;-80
2022/02/13 03:45:29;;;;;;;2.07;1.50;;;;;;;;;;5029365;28;20428;-80
2022/02/13 03:47:55;;;;;;;4.50;1.70;;;;;;;;;;5010194;28;20438;-81
2022/02/13 03:50:21;;;;;;;3.53;1.33;;;;;;;;;;4997528;28;20432;-81
2022/02/13 03:52:47;;;;;;;2.20;1.40;;;;;;;;;;4997977;28;20455;-81
2022/02/13 03:55:16;;;;;;;4.00;1.60;;;;;;;;;;5012582;28;20416;-81
2022/02/13 03:57:42;;;;;;;2.80;1.90;;;;;;;;;;5000827;28;20844;-81
2022/02/13 04:00:08;;;;;;;2.30;1.30;;;;;;;;;;5000661;28;20430;-80
2022/02/13 04:02:34;;;;;;;2.37;1.60;;;;;;;;;;5020409;28;20466;-81
2022/02/13 04:05:00;;;;;;;5.30;1.83;;;;;;;;;;5000906;28;20483;-80
2022/02/13 04:07:28;;;;;;;6.20;1.93;;;;;;;;;;5001104;28;20458;-81
2022/02/13 04:09:55;;;;;;;2.53;1.60;;;;;;;;;;5015919;28;20621;-80
2022/02/13 04:12:24;;;;;;;1.80;1.50;;;;;;;;;;5000584;28;20427;-80
2022/02/13 04:14:50;;;;;;;2.10;1.30;;;;;;;;;;5000345;28;20420;-80
2022/02/13 04:17:16;;;;;;;2.80;1.83;;;;;;;;;;5017078;28;20506;-80
2022/02/13 04:19:42;;;;;;;2.07;1.50;;;;;;;;;;5002464;28;20436;-80
2022/02/13 04:22:08;;;;;;;3.07;1.90;;;;;;;;;;5016043;28;20466;-81
2022/02/13 04:24:34;;;;;;;2.40;1.63;;;;;;;;;;5000507;28;20397;-80
2022/02/13 04:27:00;;;;;;;4.97;1.50;;;;;;;;;;5015602;28;20404;-81
2022/02/13 04:29:26;;;;;;;3.30;1.30;;;;;;;;;;5000581;28;20424;-80
2022/02/13 04:31:52;;;;;;;3.40;1.40;;;;;;;;;;5019533;28;20420;-81
2022/02/13 04:34:18;;;;;;;2.20;1.40;;;;;;;;;;5020724;28;20483;-81
2022/02/13 04:36:44;;;;;;;2.50;1.67;;;;;;;;;;5019304;28;20408;-80
2022/02/13 04:39:10;;;;;;;3.47;2.07;;;;;;;;;;5035160;28;20472;-81
2022/02/13 04:41:36;;;;;;;2.00;1.40;;;;;;;;;;5062251;28;20549;-80
2022/02/13 04:44:02;;;;;;;2.10;1.53;;;;;;;;;;5040776;28;20398;-81
2022/02/13 04:46:29;;;;;;;2.63;1.60;;;;;;;;;;5055833;28;20407;-81
2022/02/13 04:48:55;;;;;;;1.80;1.40;;;;;;;;;;5039527;28;20414;-81
2022/02/13 04:51:21;;;;;;;3.03;1.73;;;;;;;;;;5039839;28;20422;-80
2022/02/13 04:53:47;;;;;;;2.83;1.77;;;;;;;;;;5055592;28;20410;-80
2022/02/13 04:56:13;;;;;;;2.60;1.47;;;;;;;;;;5040148;28;20399;-80
2022/02/13 04:58:39;;;;;;;1.90;1.40;;;;;;;;;;5039692;28;20403;-80
2022/02/13 05:01:05;;;;;;;1.53;1.10;;;;;;;;;;5040241;28;20397;-80
2022/02/13 05:03:31;;;;;;;2.93;1.80;;;;;;;;;;5039588;28;20458;-80
2022/02/13 05:05:57;;;;;;;2.80;1.80;;;;;;;;;;5055163;28;20919;-81
2022/02/13 05:08:23;;;;;;;3.07;1.63;;;;;;;;;;5040141;28;20403;-81
2022/02/13 05:10:49;;;;;;;2.00;1.40;;;;;;;;;;5056420;28;20438;-81
2022/02/13 05:13:15;;;;;;;2.90;1.37;;;;;;;;;;5055760;28;20941;-81
2022/02/13 05:15:41;;;;;;;2.70;1.60;;;;;;;;;;5045722;28;20383;-80
2022/02/13 05:18:07;;;;;;;2.30;1.60;;;;;;;;;;5057498;28;20411;-81
2022/02/13 05:20:33;;;;;;;3.70;1.40;;;;;;;;;;5045150;28;20418;-81
2022/02/13 05:23:00;;;;;;;2.73;1.60;;;;;;;;;;5056263;28;20512;-81
2022/02/13 05:25:26;;;;;;;3.73;1.70;;;;;;;;;;5040267;28;20461;-80
2022/02/13 05:27:52;;;;;;;3.17;1.70;;;;;;;;;;5055179;28;20513;-80
2022/02/13 05:30:18;;;;;;;2.63;1.77;;;;;;;;;;5054500;28;20516;-80
2022/02/13 05:32:45;;;;;;;3.40;1.83;;;;;;;;;;5038656;28;20410;-81
2022/02/13 05:35:11;;;;;;;2.63;1.50;;;;;;;;;;5038486;28;20410;-81
2022/02/13 05:37:41;;;;;;;7.53;1.83;;;;;;;;;;5054495;28;20811;-80
2022/02/13 05:40:08;;;;;;;6.03;1.50;;;;;;;;;;5051256;22;20494;-78
2022/02/13 05:42:34;;;;;;;2.00;1.13;;;;;;;;;;5039396;28;20465;-79
2022/02/13 05:45:00;;;;;;;3.67;1.33;;;;;;;;;;5039348;28;20437;-79
2022/02/13 05:47:26;;;;;;;2.03;1.47;;;;;;;;;;5054683;28;20417;-79
2022/02/13 05:49:52;;;;;;;2.37;1.30;;;;;;;;;;5039476;28;20945;-79
2022/02/13 05:52:18;;;;;;;2.20;1.50;;;;;;;;;;5038506;28;20536;-78
2022/02/13 05:54:44;;;;;;;2.47;1.50;;;;;;;;;;5039032;28;20492;-79
2022/02/13 05:57:10;;;;;;;1.93;1.37;;;;;;;;;;5039896;28;20922;-79
2022/02/13 05:59:37;;;;;;;2.27;1.27;;;;;;;;;;5040920;28;20430;-78
2022/02/13 06:02:03;;;;;;;2.10;1.47;;;;;;;;;;5038827;28;20454;-79
2022/02/13 06:04:30;;;;;;;2.37;1.30;;;;;;;;;;5036492;28;20434;-77
2022/02/13 06:06:56;;;;;;;2.43;1.40;;;;;;;;;;5035083;28;20391;-78
2022/02/13 06:09:23;;;;;;;2.50;1.27;;;;;;;;;;5034595;28;20960;-77
2022/02/13 06:11:50;;;;;;;1.80;1.40;;;;;;;;;;5035066;28;20433;-77
2022/02/13 06:14:16;;;;;;;3.97;1.40;;;;;;;;;;5036502;28;20398;-77
2022/02/13 06:16:42;;;;;;;2.03;1.60;;;;;;;;;;5034916;28;20395;-77
2022/02/13 06:19:08;;;;;;;2.07;1.30;;;;;;;;;;5033922;28;20399;-77
2022/02/13 06:21:35;;;;;;;2.63;1.57;;;;;;;;;;5034383;28;20454;-77
2022/02/13 06:24:01;;;;;;;2.20;1.40;;;;;;;;;;5034560;28;20403;-77
2022/02/13 06:26:27;;;;;;;5.80;3.07;;;;;;;;;;5035114;28;20797;-77
2022/02/13 06:28:55;;;;;;;2.50;1.70;;;;;;;;;;5034364;28;20398;-78
2022/02/13 06:31:21;;;;;;;4.60;1.87;;;;;;;;;;5034286;28;20971;-79
2022/02/13 06:33:47;;;;;;;2.80;1.70;;;;;;;;;;5034174;28;20402;-77
2022/02/13 06:36:13;;;;;;;3.03;1.70;;;;;;;;;;5033233;28;20410;-77
2022/02/13 06:38:39;;;;;;;2.50;1.70;;;;;;;;;;5034135;28;20403;-78
2022/02/13 06:41:06;;;;;;;2.47;1.60;;;;;;;;;;5034193;28;20438;-78
2022/02/13 06:43:33;;;;;;;7.40;1.70;;;;;;;;;;5033867;28;20545;-78
2022/02/13 06:45:59;;;;;;;5.10;2.00;;;;;;;;;;5033893;28;20390;-78
2022/02/13 06:48:29;;;;;;;2.97;1.80;;;;;;;;;;5033587;28;20417;-78
2022/02/13 06:50:55;;;;;;;2.10;1.60;;;;;;;;;;5034292;28;20422;-78
2022/02/13 06:53:22;;;;;;;2.50;1.57;;;;;;;;;;5034402;28;20410;-78
2022/02/13 06:55:48;;;;;;;2.80;1.80;;;;;;;;;;5034436;28;20430;-78
2022/02/13 06:58:14;;;;;;;3.80;2.07;;;;;;;;;;5035471;28;20895;-78
2022/02/13 07:00:40;;;;;;;2.30;1.70;;;;;;;;;;5035422;28;20964;-78
2022/02/13 07:03:07;;;;;;;10.40;2.60;;;;;;;;;;5034884;28;20445;-77
2022/02/13 07:05:33;;;;;;;3.00;1.80;;;;;;;;;;5036624;28;20754;-77
2022/02/13 07:07:59;;;;;;;3.77;2.27;;;;;;;;;;5037284;28;20774;-78
2022/02/13 07:10:25;;;;;;;3.53;2.63;;;;;;;;;;5035517;28;20794;-77
2022/02/13 07:12:51;;;;;;;7.27;1.50;;;;;;;;;;5035612;28;20407;-77
2022/02/13 07:15:18;;;;;;;4.67;1.73;;;;;;;;;;5035366;28;20463;-78
2022/02/13 07:17:44;;;;;;;2.00;1.27;;;;;;;;;;5036226;28;20406;-79
2022/02/13 07:20:10;;;;;;;2.17;1.67;;;;;;;;;;5038553;28;20430;-79
2022/02/13 07:22:37;;;;;;;3.20;2.00;;;;;;;;;;5042739;28;20458;-78
2022/02/13 07:25:06;;;;;;;2.77;1.67;;;;;;;;;;5045523;28;20399;-79
2022/02/13 07:27:33;;;;;;;2.67;1.53;;;;;;;;;;5044689;28;20402;-79
2022/02/13 07:29:59;;;;;;;1.90;1.40;;;;;;;;;;5039123;28;20426;-78
2022/02/13 07:32:25;;;;;;;1.83;1.40;;;;;;;;;;5042147;28;20561;-79
2022/02/13 07:34:51;;;;;;;1.90;1.60;;;;;;;;;;5042563;28;20411;-79
2022/02/13 07:37:18;;;;;;;3.13;1.40;;;;;;;;;;5042421;28;20406;-78
2022/02/13 07:39:44;;;;;;;4.70;2.03;;;;;;;;;;5042102;28;20441;-79
2022/02/13 07:42:10;;;;;;;2.70;1.83;;;;;;;;;;5041487;28;20807;-79
2022/02/13 07:44:37;;;;;;;5.17;2.23;;;;;;;;;;5042692;28;20858;-79
2022/02/13 07:47:04;;;;;;;3.30;1.50;;;;;;;;;;5042453;28;20426;-78
2022/02/13 07:49:30;;;;;;;2.60;2.00;;;;;;;;;;5039466;28;20553;-77
2022/02/13 07:51:56;;;;;;;4.87;1.80;;;;;;;;;;5041736;28;20906;-78
2022/02/13 07:54:22;;;;;;;2.50;1.50;;;;;;;;;;5040106;28;20484;-78
2022/02/13 07:56:48;;;;;;;2.90;2.00;;;;;;;;;;5039018;28;20402;-77
2022/02/13 07:59:14;;;;;;;3.50;1.77;;;;;;;;;;5039019;28;20406;-77
2022/02/13 08:01:40;;;;;;;3.37;1.80;;;;;;;;;;5037878;28;20462;-78
2022/02/13 08:04:06;;;;;;;2.40;1.57;;;;;;;;;;5037530;28;20430;-78
2022/02/13 08:06:32;;;;;;;5.17;2.20;;;;;;;;;;5037861;28;20398;-78
2022/02/13 08:08:58;;;;;;;2.10;1.53;;;;;;;;;;5036448;28;20402;-78
2022/02/13 08:11:25;;;;;;;2.73;1.70;;;;;;;;;;5037066;28;20430;-77
2022/02/13 08:13:51;;;;;;;3.20;1.70;;;;;;;;;;5037614;28;20441;-78
2022/02/13 08:16:18;;;;;;;2.87;1.63;;;;;;;;;;5038302;28;20427;-78
2022/02/13 08:18:44;;;;;;;3.43;2.03;;;;;;;;;;5038833;28;20427;-78
2022/02/13 08:21:10;;;;;;;2.77;1.60;;;;;;;;;;5039110;28;20496;-78
2022/02/13 08:23:37;;;;;;;2.40;1.60;;;;;;;;;;5041321;28;20465;-78
2022/02/13 08:26:03;;;;;;;2.90;1.37;;;;;;;;;;5044796;28;20426;-79
2022/02/13 08:28:31;;;;;;;2.57;1.80;;;;;;;;;;5040882;28;20497;-78
2022/02/13 08:30:57;;;;;;;2.37;1.53;;;;;;;;;;5040034;28;20481;-78
2022/02/13 08:33:23;;;;;;;2.70;1.57;;;;;;;;;;5040587;28;20418;-78
2022/02/13 08:35:49;;;;;;;1.87;1.43;;;;;;;;;;5038706;28;20437;-78
2022/02/13 08:38:15;;;;;;;2.00;1.43;;;;;;;;;;5037983;28;20449;-78
2022/02/13 08:40:42;;;;;;;2.70;1.60;;;;;;;;;;5038251;28;20458;-77
2022/02/13 08:43:08;;;;;;;1.80;1.43;;;;;;;;;;5037640;28;20833;-79
2022/02/13 08:45:35;;;;;;;2.60;1.60;;;;;;;;;;5036393;28;20441;-79
2022/02/13 08:48:01;;;;;;;3.67;1.60;;;;;;;;;;5039460;28;20419;-79
2022/02/13 08:50:27;;;;;;;2.63;1.63;;;;;;;;;;5039060;28;20461;-80
2022/02/13 08:52:54;;;;;;;6.03;1.90;;;;;;;;;;5040162;28;20774;-80
2022/02/13 08:55:20;;;;;;;3.87;1.70;;;;;;;;;;5041749;28;20442;-78
2022/02/13 08:57:46;;;;;;;6.07;1.40;;;;;;;;;;5042157;28;20520;-79
2022/02/13 09:00:14;;;;;;;5.10;1.67;;;;;;;;;;5040222;28;20419;-79
2022/02/13 09:02:40;;;;;;;2.27;1.40;;;;;;;;;;5039570;28;20548;-79
2022/02/13 09:05:07;;;;;;;3.60;1.50;;;;;;;;;;5039899;28;20858;-79
2022/02/13 09:07:38;;;;;;;2.50;1.40;;;;;;;;;;5040547;28;20538;-79
2022/02/13 09:10:05;;;;;;;2.20;1.33;;;;;;;;;;5039883;28;20430;-79
2022/02/13 09:12:31;;;;;;;1.97;1.30;;;;;;;;;;5039620;28;20500;-79
2022/02/13 09:14:58;;;;;;;2.20;1.50;;;;;;;;;;5039847;28;20470;-79
2022/02/13 09:17:24;;;;;;;2.43;1.40;;;;;;;;;;5038830;28;20489;-79
2022/02/13 09:19:50;;;;;;;7.00;1.80;;;;;;;;;;5038410;28;20878;-79
2022/02/13 09:22:16;;;;;;;2.30;1.57;;;;;;;;;;5039204;28;20461;-79
2022/02/13 09:24:42;;;;;;;3.23;1.53;;;;;;;;;;5038946;28;20410;-80
2022/02/13 09:27:08;;;;;;;2.30;1.53;;;;;;;;;;5036099;28;20452;-77
2022/02/13 09:29:35;;;;;;;3.37;2.20;;;;;;;;;;5036783;28;20818;-79
2022/02/13 09:32:01;;;;;;;2.70;1.63;;;;;;;;;;5038077;28;20406;-79
2022/02/13 09:34:28;;;;;;;2.77;1.80;;;;;;;;;;5037841;28;20437;-79
2022/02/13 09:36:55;;;;;;;2.83;2.03;;;;;;;;;;5039012;28;20430;-79
2022/02/13 09:39:21;;;;;;;2.13;1.57;;;;;;;;;;5038554;28;20433;-79
2022/02/13 09:41:47;;;;;;;3.40;1.90;;;;;;;;;;5038351;28;20442;-79
2022/02/13 09:44:13;;;;;;;3.47;1.83;;;;;;;;;;5037035;28;20446;-78
2022/02/13 09:46:41;;;;;;;3.50;2.57;;;;;;;;;;5036586;28;20895;-79
2022/02/13 09:49:07;;;;;;;2.33;1.47;;;;;;;;;;5039723;28;20399;-79
2022/02/13 09:51:34;;;;;;;2.10;1.47;;;;;;;;;;5037312;28;20452;-79
2022/02/13 09:54:01;;;;;;;2.73;1.70;;;;;;;;;;5037888;28;20402;-79
2022/02/13 09:56:27;;;;;;;2.23;1.50;;;;;;;;;;5047047;28;20410;-79
2022/02/13 09:58:53;;;;;;;4.57;1.90;;;;;;;;;;5041301;28;20402;-77
2022/02/13 10:01:19;;;;;;;2.70;1.87;;;;;;;;;;5035441;28;20487;-78
2022/02/13 10:03:49;;;;;;;4.10;1.67;;;;;;;;;;5038305;28;20786;-78
2022/02/13 10:06:16;;;;;;;2.67;1.57;;;;;;;;;;5038476;28;20429;-78
2022/02/13 10:08:43;;;;;;;2.93;2.10;;;;;;;;;;5038971;28;20399;-78
2022/02/13 10:11:12;;;;;;;2.97;2.50;;;;;;;;;;5037784;28;20442;-78
2022/02/13 10:13:41;;;;;;;3.07;1.70;;;;;;;;;;5037247;28;20398;-79
2022/02/13 10:16:23;;;;;;;2.97;1.50;;;;;;;;;;5039183;28;20417;-79
2022/02/13 10:18:51;;;;;;;3.50;1.90;;;;;;;;;;5044149;28;20474;-79
2022/02/13 10:21:30;;;;;;;2.87;1.90;;;;;;;;;;5042800;28;20433;-78
2022/02/13 10:24:12;;;;;;;6.17;2.20;;;;;;;;;;5039937;28;20763;-79
2022/02/13 10:26:38;;;;;;;4.17;1.80;;;;;;;;;;5039497;28;20488;-79
2022/02/13 10:29:04;;;;;;;6.63;2.80;;;;;;;;;;5037906;28;20399;-79
2022/02/13 10:31:30;;;;;;;3.77;2.20;;;;;;;;;;5038923;28;20477;-79
2022/02/13 10:34:00;;;;;;;5.70;2.80;;;;;;;;;;5038301;28;20399;-79
2022/02/13 10:36:26;;;;;;;2.73;2.20;;;;;;;;;;5038340;28;20802;-79
2022/02/13 10:38:53;;;;;;;4.70;3.20;;;;;;;;;;5038136;28;20442;-79
2022/02/13 10:41:19;;;;;;;4.87;2.57;;;;;;;;;;5037727;28;20522;-79
2022/02/13 10:43:51;;;;;;;4.50;1.73;;;;;;;;;;5044263;28;20504;-79
2022/02/13 10:46:18;;;;;;;4.37;2.40;;;;;;;;;;5047338;28;20406;-79
2022/02/13 10:48:45;;;;;;;3.73;2.50;;;;;;;;;;5040864;28;20505;-77
2022/02/13 10:51:12;;;;;;;5.03;2.17;;;;;;;;;;5038699;28;20451;-79
2022/02/13 10:53:38;;;;;;;3.60;2.10;;;;;;;;;;5038402;28;20410;-79
2022/02/13 10:56:04;;;;;;;3.13;1.83;;;;;;;;;;5039238;28;20410;-79
2022/02/13 10:58:31;;;;;;;3.50;1.90;;;;;;;;;;5037746;28;20883;-79
2022/02/13 11:01:01;;;;;;;5.23;2.87;;;;;;;;;;5036222;28;20513;-79
2022/02/13 11:03:31;;;;;;;2.87;2.20;;;;;;;;;;5037451;28;20828;-78
2022/02/13 11:05:59;;;;;;;4.50;2.30;;;;;;;;;;5043420;28;20390;-79
2022/02/13 11:08:28;;;;;;;3.83;2.70;;;;;;;;;;5042141;28;20406;-77
2022/02/13 11:10:57;;;;;;;4.10;2.27;;;;;;;;;;5042079;28;20450;-77
2022/02/13 11:13:30;;;;;;;5.90;2.70;;;;;;;;;;5041864;28;20774;-78
2022/02/13 11:15:56;;;;;;;5.20;2.50;;;;;;;;;;5044110;28;20481;-78
2022/02/13 11:18:25;;;;;;;4.03;2.50;;;;;;;;;;5046677;28;20432;-79
2022/02/13 11:20:54;;;;;;;5.03;2.67;;;;;;;;;;5045878;28;20442;-78
2022/02/13 11:23:23;;;;;;;3.27;2.10;;;;;;;;;;5044263;28;20815;-78
2022/02/13 11:25:52;;;;;;;8.83;2.50;;;;;;;;;;5043816;28;20779;-78
2022/02/13 11:28:26;;;;;;;5.20;2.30;;;;;;;;;;5043768;28;20517;-77
2022/02/13 11:30:54;;;;;;;4.40;2.33;;;;;;;;;;5042588;28;20424;-80
2022/02/13 11:33:26;;;;;;;3.60;2.60;;;;;;;;;;5042755;28;20406;-80
2022/02/13 11:35:57;;;;;;;4.57;2.43;;;;;;;;;;5042409;28;20420;-79
2022/02/13 11:38:38;;;;;;;3.60;2.13;;;;;;;;;;5042666;28;20402;-79
2022/02/13 11:41:08;;;;;;;3.00;2.10;;;;;;;;;;5049851;23;20547;-77
2022/02/13 11:43:46;;;;;;;6.90;3.40;;;;;;;;;;5036115;28;20556;-77
2022/02/13 11:46:12;;;;;;;5.17;2.97;;;;;;;;;;5038589;28;20475;-77
2022/02/13 11:48:45;;;;;;;6.27;3.07;;;;;;;;;;5039781;28;20420;-77
2022/02/13 11:51:13;;;;;;;5.23;2.30;;;;;;;;;;5039234;28;20444;-77
2022/02/13 11:53:42;;;;;;;3.90;2.60;;;;;;;;;;5039144;28;20441;-76
2022/02/13 11:56:24;;;;;;;6.97;2.40;;;;;;;;;;5038516;28;20429;-73
2022/02/13 11:58:51;;;;;;;5.22;2.42;;;;;;;;;;5038582;28;20421;-75
2022/02/13 12:01:35;;;;;;;5.30;2.33;;;;;;;;;;5039607;28;20230;-78
2022/02/13 12:04:02;;;;;;;5.97;2.30;;;;;;;;;;5038550;28;20413;-76
2022/02/13 12:06:29;;;;;;;4.20;2.20;;;;;;;;;;5039315;28;20174;-77
2022/02/13 12:09:03;;;;;;;5.03;2.60;;;;;;;;;;5039310;28;20418;-77
2022/02/13 12:11:35;;;;;;;4.77;2.40;;;;;;;;;;5038994;28;20496;-78
2022/02/13 12:14:11;;;;;;;8.67;2.90;;;;;;;;;;5039138;28;20501;-78
2022/02/13 12:16:37;;;;;;;4.17;1.87;;;;;;;;;;5036214;28;20406;-76
2022/02/13 12:19:03;;;;;;;2.97;2.10;;;;;;;;;;5033891;28;20484;-77
2022/02/13 12:21:29;;;;;;;4.43;2.40;;;;;;;;;;5034242;28;20430;-77
2022/02/13 12:24:02;;;;;;;2.20;1.93;;;;;;;;;;5035654;28;20406;-77
2022/02/13 12:26:30;;;;;;;7.70;2.63;;;;;;;;;;5035142;28;20489;-76
2022/02/13 12:28:57;;;;;;;5.93;2.20;;;;;;;;;;5035924;28;20477;-76
2022/02/13 12:31:24;;;;;;;5.30;2.33;;;;;;;;;;5035681;28;20419;-76
2022/02/13 12:33:52;;;;;;;5.53;2.40;;;;;;;;;;5035960;28;20405;-76
2022/02/13 12:36:25;;;;;;;5.10;2.23;;;;;;;;;;5036076;28;20766;-76
2022/02/13 12:38:57;;;;;;;6.70;2.40;;;;;;;;;;5035846;28;20411;-77
2022/02/13 12:41:25;;;;;;;3.87;1.87;;;;;;;;;;5035403;28;20973;-76
2022/02/13 12:43:52;;;;;;;3.70;1.93;;;;;;;;;;5035501;28;20837;-77
2022/02/13 12:46:21;;;;;;;4.97;2.13;;;;;;;;;;5035490;28;20391;-77
2022/02/13 12:48:48;;;;;;;3.60;1.97;;;;;;;;;;5035691;28;20399;-78
2022/02/13 12:51:14;;;;;;;2.30;1.60;;;;;;;;;;5035138;28;20410;-77
2022/02/13 12:53:41;;;;;;;4.17;1.93;;;;;;;;;;5035599;28;20758;-77
2022/02/13 12:56:12;;;;;;;4.40;2.17;;;;;;;;;;5035588;28;20399;-77
2022/02/13 12:58:38;;;;;;;3.80;3.03;;;;;;;;;;5035641;28;20748;-76
2022/02/13 13:01:05;;;;;;;2.73;2.00;;;;;;;;;;5035267;28;20410;-77
2022/02/13 13:03:32;;;;;;;6.30;2.40;;;;;;;;;;5035466;28;20462;-77
2022/02/13 13:05:58;;;;;;;3.60;1.87;;;;;;;;;;5035547;28;20410;-76
2022/02/13 13:08:25;;;;;;;4.30;2.20;;;;;;;;;;5035111;28;20402;-77
2022/02/13 13:11:01;;;;;;;4.13;2.10;;;;;;;;;;5035203;28;20957;-77
2022/02/13 13:13:27;;;;;;;3.97;2.27;;;;;;;;;;5035637;28;20419;-77
2022/02/13 13:16:09;;;;;;;3.70;2.30;;;;;;;;;;5035194;28;20922;-77
2022/02/13 13:18:38;;;;;;;6.67;2.40;;;;;;;;;;5035203;28;20993;-77
2022/02/13 13:21:14;;;;;;;3.40;2.23;;;;;;;;;;5035255;28;20425;-77
2022/02/13 13:23:56;;;;;;;3.40;1.90;;;;;;;;;;5033454;28;20512;-76
2022/02/13 13:26:23;;;;;;;2.90;1.90;;;;;;;;;;5035222;28;20533;-77
2022/02/13 13:28:49;;;;;;;2.97;2.00;;;;;;;;;;5032478;28;20409;-76
2022/02/13 13:31:15;;;;;;;3.83;2.13;;;;;;;;;;5034834;28;20433;-76
2022/02/13 13:33:41;;;;;;;4.17;2.10;;;;;;;;;;5034602;28;20407;-77
2022/02/13 13:36:07;;;;;;;4.40;2.30;;;;;;;;;;5034555;28;20925;-78
2022/02/13 13:38:34;;;;;;;3.73;2.50;;;;;;;;;;5033090;28;20492;-77
2022/02/13 13:41:04;;;;;;;2.90;2.03;;;;;;;;;;5034154;28;20958;-77
2022/02/13 13:43:30;;;;;;;3.87;2.10;;;;;;;;;;5032902;28;20822;-77
2022/02/13 13:45:56;;;;;;;10.60;2.60;;;;;;;;;;5034316;28;20935;-77
2022/02/13 13:48:22;;;;;;;3.40;1.97;;;;;;;;;;5034195;28;20395;-77
2022/02/13 13:50:49;;;;;;;4.87;2.43;;;;;;;;;;5034108;28;20494;-76
2022/02/13 13:53:17;;;;;;;5.70;2.30;;;;;;;;;;5034184;28;20411;-76
2022/02/13 13:55:44;;;;;;;7.90;2.50;;;;;;;;;;5034488;28;20394;-76
2022/02/13 13:58:11;;;;;;;4.00;2.70;;;;;;;;;;5033931;28;20402;-76
2022/02/13 14:00:37;;;;;;;4.20;2.20;;;;;;;;;;5034029;28;20418;-77
2022/02/13 14:03:04;;;;;;;3.60;2.23;;;;;;;;;;5033926;28;20482;-77
2022/02/13 14:05:34;;;;;;;3.80;2.07;;;;;;;;;;5033853;28;20430;-77
2022/02/13 14:08:02;;;;;;;5.57;2.57;;;;;;;;;;5034199;28;20875;-77
2022/02/13 14:10:28;;;;;;;5.77;2.20;;;;;;;;;;5033849;28;20430;-77
2022/02/13 14:12:54;;;;;;;3.03;1.93;;;;;;;;;;5033525;28;20418;-77
2022/02/13 14:15:21;;;;;;;3.70;2.27;;;;;;;;;;5033790;28;20423;-76
2022/02/13 14:17:47;;;;;;;4.60;2.57;;;;;;;;;;5032159;28;20411;-77
2022/02/13 14:20:14;;;;;;;8.30;2.40;;;;;;;;;;5033232;28;20434;-77
2022/02/13 14:22:40;;;;;;;4.33;2.03;;;;;;;;;;5033877;28;20469;-77
2022/02/13 14:25:06;;;;;;;5.60;2.90;;;;;;;;;;5033408;28;20398;-76
2022/02/13 14:27:32;;;;;;;7.10;2.80;;;;;;;;;;5033554;28;20425;-76
2022/02/13 14:29:59;;;;;;;5.77;2.03;;;;;;;;;;5033394;28;20422;-76
2022/02/13 14:32:25;;;;;;;5.13;3.63;;;;;;;;;;5033515;28;20414;-76
2022/02/13 14:34:51;;;;;;;3.60;2.63;;;;;;;;;;5033371;28;20910;-76
2022/02/13 14:37:18;;;;;;;3.97;1.83;;;;;;;;;;5033337;28;20414;-76
2022/02/13 14:39:44;;;;;;;5.30;2.40;;;;;;;;;;5033044;28;20418;-76
2022/02/13 14:42:11;;;;;;;6.87;4.93;;;;;;;;;;5033934;28;20462;-76